Zionsville, Indiana
Current Conditions -  °F | °C
As of 6:15 AM on Saturday 25 Oct 2014 (Local Time) from KTYQ Reporting Station
Scattered Clouds Scattered Clouds  
Wind Chill: 55°   Ceiling: Unl
Heat Index: 55°   Visibility: 10mi
Dew Point: 49°   Wind: 7mph
Humidity: 82%   Direction: 220°SW
Pressure: 29.95"   Gusts: NA
Location:  39.95°N, 86.26°W
Report Text: KTYQ 251015Z AUTO 22006KT 10SM SCT050 13/10 A2995 RMK AO2 T01250095
Loading
Personal Weather Stations






























Interactive Weather Map
Tropical Storm Tracking
New forecast layout! Learn more

10-Day Weather Forecast

Advertisements
Track Severe Weather on mobile